createdAt,value
2022-12-20T00:00:01.511Z,7.50
2022-12-20T00:02:47.406Z,7.10
2022-12-20T00:05:37.419Z,7.70
2022-12-20T00:08:22.832Z,7.10
2022-12-20T00:11:09.604Z,8.10
2022-12-20T00:13:55.340Z,8.00
2022-12-20T00:16:40.814Z,8.10
2022-12-20T00:19:26.143Z,8.30
2022-12-20T00:22:11.840Z,8.20
2022-12-20T00:24:57.486Z,8.40
2022-12-20T00:27:42.852Z,8.40
2022-12-20T00:30:28.830Z,8.00
2022-12-20T00:33:14.193Z,8.00
2022-12-20T00:36:00.042Z,8.10
2022-12-20T00:38:47.378Z,8.30
2022-12-20T00:41:34.942Z,8.50
2022-12-20T00:44:20.580Z,8.60
2022-12-20T00:47:06.223Z,8.60
2022-12-20T00:49:51.525Z,8.70
2022-12-20T00:52:37.202Z,8.70
2022-12-20T00:55:23.237Z,8.70
2022-12-20T00:58:09.110Z,8.80
2022-12-20T01:00:56.803Z,8.60
2022-12-20T01:03:42.922Z,8.80
2022-12-20T01:06:31.075Z,8.80
2022-12-20T01:09:16.876Z,8.90
2022-12-20T01:12:02.335Z,8.80
2022-12-20T01:14:47.844Z,8.60
2022-12-20T01:17:33.320Z,8.60
2022-12-20T01:20:19.168Z,8.50
2022-12-20T01:23:04.838Z,8.50
2022-12-20T01:25:51.695Z,8.50
2022-12-20T01:28:39.992Z,8.20
2022-12-20T01:31:26.640Z,8.40
2022-12-20T01:34:12.464Z,8.30
2022-12-20T01:36:58.849Z,8.50
2022-12-20T01:39:44.202Z,8.70
2022-12-20T01:42:29.845Z,8.80
2022-12-20T01:45:25.645Z,8.80
2022-12-20T01:48:12.241Z,8.90
2022-12-20T01:50:58.398Z,8.80
2022-12-20T01:53:43.977Z,9.00
2022-12-20T01:56:29.722Z,9.00
2022-12-20T01:59:15.587Z,8.90
2022-12-20T02:02:05.152Z,8.90
2022-12-20T02:04:51.123Z,8.90
2022-12-20T02:07:38.814Z,8.90
2022-12-20T02:10:34.479Z,8.90
2022-12-20T02:13:55.186Z,8.90
2022-12-20T02:16:52.038Z,9.00
2022-12-20T02:20:06.840Z,8.90
2022-12-20T02:22:52.592Z,8.90
2022-12-20T02:26:04.260Z,8.90
2022-12-20T02:29:12.163Z,8.90
2022-12-20T02:32:13.127Z,8.90
2022-12-20T02:34:59.752Z,8.80
2022-12-20T02:37:56.633Z,8.80
2022-12-20T02:40:43.761Z,8.80
2022-12-20T02:43:49.585Z,8.70
2022-12-20T02:46:35.735Z,8.80
2022-12-20T02:49:26.558Z,8.80
2022-12-20T02:52:14.337Z,8.90
2022-12-20T02:55:01.052Z,8.50
2022-12-20T02:58:10.113Z,8.40
2022-12-20T03:00:59.583Z,8.60
2022-12-20T03:03:46.020Z,8.80
2022-12-20T03:06:31.890Z,8.60
2022-12-20T03:09:17.730Z,8.50
2022-12-20T03:12:04.465Z,8.30
2022-12-20T03:14:53.505Z,8.20
2022-12-20T03:17:39.312Z,8.00
2022-12-20T03:20:24.813Z,8.10
2022-12-20T03:23:10.672Z,8.50
2022-12-20T03:25:56.631Z,8.40
2022-12-20T03:28:49.561Z,8.50
2022-12-20T03:31:38.850Z,8.60
2022-12-20T03:34:24.493Z,8.60
2022-12-20T03:37:10.044Z,8.60
2022-12-20T03:39:55.842Z,8.70
2022-12-20T03:42:41.516Z,8.50
2022-12-20T03:45:27.044Z,7.60
2022-12-20T03:48:12.649Z,7.70
2022-12-20T03:50:58.819Z,8.00
2022-12-20T03:53:44.223Z,8.30
2022-12-20T03:56:31.927Z,8.50
2022-12-20T03:59:17.337Z,8.70
2022-12-20T04:02:04.285Z,8.90
2022-12-20T04:04:50.417Z,8.80
2022-12-20T04:07:36.342Z,8.80
2022-12-20T04:10:22.092Z,8.80
2022-12-20T04:13:08.115Z,8.50
2022-12-20T04:15:59.777Z,8.60
2022-12-20T04:18:48.465Z,8.50
2022-12-20T04:21:35.175Z,8.60
2022-12-20T04:24:22.661Z,8.60
2022-12-20T04:27:30.752Z,8.70
2022-12-20T04:30:16.779Z,8.60
2022-12-20T04:33:02.842Z,8.50
2022-12-20T04:35:48.418Z,8.50
2022-12-20T04:38:35.603Z,8.70
2022-12-20T04:41:24.515Z,8.50
2022-12-20T04:44:15.911Z,8.50
2022-12-20T04:47:02.109Z,8.90
2022-12-20T04:49:48.139Z,8.80
2022-12-20T04:52:52.072Z,8.80
2022-12-20T04:55:39.257Z,8.90
2022-12-20T04:58:25.499Z,8.70
2022-12-20T05:01:11.416Z,8.50
2022-12-20T05:04:04.525Z,8.80
2022-12-20T05:06:54.391Z,8.60
2022-12-20T05:09:40.182Z,8.70
2022-12-20T05:12:25.491Z,8.00
2022-12-20T05:15:12.314Z,7.80
2022-12-20T05:17:59.695Z,7.60
2022-12-20T05:21:14.425Z,7.70
2022-12-20T05:24:20.758Z,8.20
2022-12-20T05:27:30.546Z,8.60
2022-12-20T05:30:16.612Z,8.70
2022-12-20T05:33:03.157Z,8.70
2022-12-20T05:35:50.335Z,8.60
2022-12-20T05:38:36.567Z,8.30
2022-12-20T05:41:28.087Z,7.70
2022-12-20T05:44:13.442Z,7.70
2022-12-20T05:47:03.057Z,7.40
2022-12-20T05:49:52.204Z,7.80
2022-12-20T05:52:38.235Z,8.00
2022-12-20T05:55:24.545Z,8.30
2022-12-20T05:58:13.660Z,8.40
2022-12-20T06:01:10.509Z,8.50
2022-12-20T06:03:57.303Z,8.30
2022-12-20T06:06:42.970Z,8.40
2022-12-20T06:09:30.174Z,8.60
2022-12-20T06:12:26.501Z,8.40
2022-12-20T06:15:13.360Z,8.00
2022-12-20T06:18:01.364Z,7.60
2022-12-20T06:20:51.502Z,7.90
2022-12-20T06:23:40.114Z,7.90
2022-12-20T06:26:29.516Z,8.30
2022-12-20T06:29:18.076Z,8.40
2022-12-20T06:32:09.622Z,7.60
2022-12-20T06:34:56.680Z,7.90
2022-12-20T06:37:43.069Z,8.30
2022-12-20T06:40:28.516Z,8.60
2022-12-20T06:43:17.591Z,8.70
2022-12-20T06:46:03.532Z,8.90
2022-12-20T06:48:49.550Z,8.90
2022-12-20T06:51:37.075Z,9.00
2022-12-20T06:54:23.963Z,9.00
2022-12-20T06:57:09.791Z,8.70
2022-12-20T06:59:56.717Z,8.70
2022-12-20T07:02:42.325Z,8.90
2022-12-20T07:05:27.823Z,8.80
2022-12-20T07:08:13.600Z,8.60
2022-12-20T07:11:05.698Z,8.60
2022-12-20T07:13:59.087Z,7.90
2022-12-20T07:16:45.104Z,7.70
2022-12-20T07:19:30.760Z,7.50
2022-12-20T07:22:16.874Z,7.10
2022-12-20T07:25:02.181Z,7.10
2022-12-20T07:27:49.929Z,7.00
2022-12-20T07:30:35.439Z,7.50
2022-12-20T07:33:21.037Z,7.80
2022-12-20T07:36:11.294Z,7.70
2022-12-20T07:38:57.951Z,8.00
2022-12-20T07:41:46.317Z,8.20
2022-12-20T07:44:36.020Z,8.40
2022-12-20T07:47:22.811Z,8.10
2022-12-20T07:50:09.261Z,8.10
2022-12-20T07:52:56.355Z,8.10
2022-12-20T07:55:42.460Z,8.10
2022-12-20T07:58:30.199Z,8.10
2022-12-20T08:01:16.493Z,8.10
2022-12-20T08:04:11.594Z,7.80
2022-12-20T08:06:59.871Z,8.20
2022-12-20T08:09:46.645Z,8.00
2022-12-20T08:12:32.960Z,7.50
2022-12-20T08:15:19.703Z,7.30
2022-12-20T08:18:06.401Z,7.40
2022-12-20T08:20:52.118Z,7.10
2022-12-20T08:23:37.868Z,6.80
2022-12-20T08:26:23.616Z,6.70
2022-12-20T08:29:09.686Z,7.20
2022-12-20T08:31:55.208Z,7.30
2022-12-20T08:34:41.351Z,7.40
2022-12-20T08:37:26.866Z,6.60
2022-12-20T08:40:13.439Z,7.70
2022-12-20T08:43:02.333Z,8.00
2022-12-20T08:45:55.403Z,8.00
2022-12-20T08:48:41.257Z,8.40
2022-12-20T08:51:27.290Z,8.60
2022-12-20T08:54:13.124Z,8.40
2022-12-20T08:56:58.760Z,8.70
2022-12-20T08:59:44.199Z,8.70
2022-12-20T09:02:30.114Z,8.80
2022-12-20T09:05:16.221Z,8.80
2022-12-20T09:08:01.785Z,9.10
2022-12-20T09:10:47.455Z,9.00
2022-12-20T09:13:36.601Z,8.70
2022-12-20T09:16:29.875Z,7.80
2022-12-20T09:19:15.594Z,8.30
2022-12-20T09:22:01.575Z,8.70
2022-12-20T09:24:47.077Z,8.70
2022-12-20T09:27:32.629Z,8.00
2022-12-20T09:30:18.357Z,8.00
2022-12-20T09:33:08.115Z,8.30
2022-12-20T09:35:57.011Z,8.20
2022-12-20T09:38:43.215Z,8.10
2022-12-20T09:41:41.549Z,8.10
2022-12-20T09:44:37.690Z,7.80
2022-12-20T09:47:25.911Z,7.30
2022-12-20T09:50:17.504Z,7.50
2022-12-20T09:53:18.705Z,7.20
2022-12-20T09:56:15.798Z,7.00
2022-12-20T09:59:10.801Z,7.30
2022-12-20T10:01:56.827Z,7.50
2022-12-20T10:04:44.226Z,8.10
2022-12-20T10:07:55.548Z,7.90
2022-12-20T10:10:57.631Z,7.60
2022-12-20T10:13:49.293Z,7.40
2022-12-20T10:16:52.379Z,8.00
2022-12-20T10:20:00.769Z,8.00
2022-12-20T10:22:56.899Z,8.30
2022-12-20T10:25:45.070Z,7.70
2022-12-20T10:28:34.099Z,7.90
2022-12-20T10:31:20.160Z,8.20
2022-12-20T10:34:10.519Z,8.60
2022-12-20T10:37:16.313Z,8.50
2022-12-20T10:40:07.627Z,8.60
2022-12-20T10:42:53.874Z,7.90
2022-12-20T10:45:42.542Z,7.80
2022-12-20T10:48:40.635Z,8.00
2022-12-20T10:51:28.824Z,7.40
2022-12-20T10:54:24.986Z,7.50
2022-12-20T10:57:16.735Z,7.50
2022-12-20T11:00:09.065Z,7.90
2022-12-20T11:03:25.355Z,8.40
2022-12-20T11:06:17.224Z,8.60
2022-12-20T11:09:34.457Z,8.00
2022-12-20T11:12:20.034Z,7.60
2022-12-20T11:15:20.108Z,7.70
2022-12-20T11:19:00.780Z,7.60
2022-12-20T11:22:13.950Z,7.70
2022-12-20T11:25:38.172Z,7.60
2022-12-20T11:29:01.072Z,7.80
2022-12-20T11:32:21.314Z,8.50
2022-12-20T11:35:29.018Z,8.90
2022-12-20T11:38:30.835Z,8.90
2022-12-20T11:42:00.424Z,9.30
2022-12-20T11:45:08.442Z,9.50
2022-12-20T11:48:10.152Z,8.70
2022-12-20T11:51:36.910Z,8.30
2022-12-20T11:54:31.341Z,8.20
2022-12-20T11:57:27.519Z,8.70
2022-12-20T12:00:20.043Z,8.20
2022-12-20T12:03:35.958Z,8.00
2022-12-20T12:06:26.989Z,8.50
2022-12-20T12:09:18.773Z,8.90
2022-12-20T12:12:27.988Z,9.20
2022-12-20T12:15:19.856Z,9.60
2022-12-20T12:18:18.216Z,9.70
2022-12-20T12:21:20.539Z,9.90
2022-12-20T12:24:29.205Z,9.90
2022-12-20T12:27:27.456Z,9.80
2022-12-20T12:30:17.522Z,9.60
2022-12-20T12:33:11.564Z,9.60
2022-12-20T12:36:35.757Z,9.70
2022-12-20T12:39:46.712Z,9.70
2022-12-20T12:42:51.327Z,10.00
2022-12-20T12:46:01.659Z,9.90
2022-12-20T12:49:13.401Z,9.70
2022-12-20T12:52:05.424Z,9.40
2022-12-20T12:54:51.459Z,9.50
2022-12-20T12:57:58.283Z,9.70
2022-12-20T13:01:00.924Z,9.10
2022-12-20T13:03:53.005Z,9.30
2022-12-20T13:06:38.701Z,9.40
2022-12-20T13:09:30.311Z,8.90
2022-12-20T13:12:37.735Z,8.50
2022-12-20T13:15:25.315Z,8.10
2022-12-20T13:18:14.048Z,8.50
2022-12-20T13:21:29.727Z,9.00
2022-12-20T13:24:42.649Z,9.50
2022-12-20T13:27:32.660Z,9.80
2022-12-20T13:30:18.890Z,9.30
2022-12-20T13:33:22.884Z,9.10
2022-12-20T13:36:12.726Z,9.40
2022-12-20T13:39:00.930Z,9.80
2022-12-20T13:42:14.197Z,9.20
2022-12-20T13:45:04.026Z,9.00
2022-12-20T13:48:10.859Z,9.20
2022-12-20T13:50:58.130Z,8.50
2022-12-20T13:54:04.381Z,9.00
2022-12-20T13:56:51.613Z,8.90
2022-12-20T13:59:37.462Z,9.20
2022-12-20T14:02:26.796Z,9.20
2022-12-20T14:05:26.597Z,9.50
2022-12-20T14:08:22.908Z,9.70
2022-12-20T14:11:18.699Z,9.70
2022-12-20T14:14:05.033Z,9.50
2022-12-20T14:16:50.956Z,9.60
2022-12-20T14:19:36.498Z,9.80
2022-12-20T14:22:22.067Z,9.70
2022-12-20T14:25:09.593Z,9.50
2022-12-20T14:27:55.917Z,9.60
2022-12-20T14:30:43.638Z,9.70
2022-12-20T14:33:41.119Z,9.40
2022-12-20T14:36:26.601Z,9.50
2022-12-20T14:39:31.361Z,8.50
2022-12-20T14:42:20.724Z,8.30
2022-12-20T14:45:18.982Z,8.00
2022-12-20T14:48:15.375Z,8.60
2022-12-20T14:51:07.465Z,9.20
2022-12-20T14:53:53.455Z,9.30
2022-12-20T14:56:47.777Z,8.80
2022-12-20T14:59:34.940Z,9.20
2022-12-20T15:02:39.776Z,9.20
2022-12-20T15:05:40.804Z,9.40
2022-12-20T15:08:34.628Z,9.40
2022-12-20T15:11:23.161Z,9.40
2022-12-20T15:14:21.019Z,9.50
2022-12-20T15:17:13.292Z,9.50
2022-12-20T15:19:59.737Z,9.40
2022-12-20T15:22:48.766Z,9.40
2022-12-20T15:25:43.058Z,9.20
2022-12-20T15:28:33.147Z,8.80
2022-12-20T15:31:20.830Z,9.10
2022-12-20T15:34:27.343Z,9.30
2022-12-20T15:37:18.851Z,9.50
2022-12-20T15:40:05.163Z,9.40
2022-12-20T15:42:52.288Z,9.40
2022-12-20T15:45:38.026Z,9.50
2022-12-20T15:48:24.478Z,9.40
2022-12-20T15:51:41.596Z,9.30
2022-12-20T15:54:29.485Z,8.80
2022-12-20T15:57:17.757Z,8.70
2022-12-20T16:00:06.741Z,8.90
2022-12-20T16:02:59.404Z,9.30
2022-12-20T16:05:46.283Z,9.40
2022-12-20T16:08:34.445Z,9.30
2022-12-20T16:11:24.150Z,9.00
2022-12-20T16:14:17.849Z,9.50
2022-12-20T16:17:03.608Z,8.90
2022-12-20T16:19:49.100Z,9.20
2022-12-20T16:22:35.878Z,9.10
2022-12-20T16:25:39.740Z,8.50
2022-12-20T16:28:25.528Z,8.00
2022-12-20T16:31:33.107Z,7.90
2022-12-20T16:34:19.414Z,7.90
2022-12-20T16:37:06.294Z,8.10
2022-12-20T16:39:52.015Z,8.20
2022-12-20T16:42:37.820Z,8.70
2022-12-20T16:45:27.473Z,9.10
2022-12-20T16:48:13.210Z,8.90
2022-12-20T16:51:00.518Z,9.00
2022-12-20T16:54:17.255Z,8.90
2022-12-20T16:56:55.553Z,9.10
2022-12-20T16:59:41.541Z,8.90
2022-12-20T17:02:31.866Z,9.20
2022-12-20T17:05:46.196Z,9.20
2022-12-20T17:11:41.744Z,9.20
2022-12-20T17:14:28.337Z,8.50
2022-12-20T17:17:14.251Z,8.60
2022-12-20T17:20:02.292Z,8.50
2022-12-20T17:25:54.462Z,9.10
2022-12-20T17:28:40.460Z,9.30
2022-12-20T17:31:41.020Z,9.30
2022-12-20T17:34:30.819Z,9.30
2022-12-20T17:37:17.911Z,9.40
2022-12-20T17:40:04.346Z,9.50
2022-12-20T17:42:53.501Z,9.40
2022-12-20T17:45:40.142Z,9.00
2022-12-20T17:48:32.132Z,9.10
2022-12-20T17:51:28.602Z,9.20
2022-12-20T17:54:26.161Z,9.40
2022-12-20T17:57:16.271Z,9.50
2022-12-20T18:00:02.739Z,9.60
2022-12-20T18:02:50.340Z,9.70
2022-12-20T18:05:35.677Z,9.60
2022-12-20T18:08:21.153Z,9.40
2022-12-20T18:11:07.696Z,9.60
2022-12-20T18:13:56.075Z,9.60
2022-12-20T18:16:42.274Z,9.60
2022-12-20T18:19:28.157Z,9.00
2022-12-20T18:22:14.373Z,8.60
2022-12-20T18:25:00.088Z,8.70
2022-12-20T18:27:46.122Z,8.40
2022-12-20T18:30:31.873Z,8.50
2022-12-20T18:33:17.289Z,8.50
2022-12-20T18:36:06.327Z,8.50
2022-12-20T18:38:52.650Z,8.30
2022-12-20T18:41:38.797Z,8.50
2022-12-20T18:44:24.514Z,8.50
2022-12-20T18:47:10.165Z,8.40
2022-12-20T18:49:55.717Z,8.40
2022-12-20T18:52:43.269Z,8.50
2022-12-20T18:55:36.128Z,8.60
2022-12-20T18:58:23.140Z,8.40
2022-12-20T19:01:15.412Z,8.60
2022-12-20T19:04:03.433Z,8.50
2022-12-20T19:06:49.088Z,8.50
2022-12-20T19:09:34.598Z,8.30
2022-12-20T19:12:20.334Z,8.10
2022-12-20T19:15:07.679Z,8.00
2022-12-20T19:17:53.274Z,8.40
2022-12-20T19:20:39.425Z,8.80
2022-12-20T19:23:24.911Z,8.80
2022-12-20T19:26:13.185Z,8.40
2022-12-20T19:29:00.142Z,8.40
2022-12-20T19:31:45.689Z,8.80
2022-12-20T19:34:31.609Z,8.20
2022-12-20T19:37:18.219Z,8.50
2022-12-20T19:40:04.303Z,8.80
2022-12-20T19:42:49.901Z,9.00
2022-12-20T19:45:38.894Z,8.80
2022-12-20T19:48:24.687Z,8.70
2022-12-20T19:51:13.763Z,8.90
2022-12-20T19:54:00.519Z,9.10
2022-12-20T19:56:46.369Z,9.20
2022-12-20T19:59:32.370Z,9.30
2022-12-20T20:02:18.295Z,8.30
2022-12-20T20:05:11.035Z,7.90
2022-12-20T20:08:00.205Z,8.20
2022-12-20T20:10:48.676Z,8.40
2022-12-20T20:13:34.512Z,8.70
2022-12-20T20:16:22.812Z,8.90
2022-12-20T20:19:09.719Z,8.80
2022-12-20T20:21:55.535Z,8.60
2022-12-20T20:24:40.948Z,8.70
2022-12-20T20:27:26.514Z,8.40
2022-12-20T20:30:14.408Z,8.70
2022-12-20T20:33:00.229Z,8.60
2022-12-20T20:35:54.983Z,8.50
2022-12-20T20:38:40.933Z,8.70
2022-12-20T20:41:26.864Z,9.10
2022-12-20T20:44:12.971Z,9.20
2022-12-20T20:46:58.732Z,9.40
2022-12-20T20:49:44.614Z,9.30
2022-12-20T20:52:30.262Z,9.10
2022-12-20T20:55:15.876Z,8.70
2022-12-20T20:58:01.415Z,8.90
2022-12-20T21:00:50.011Z,9.00
2022-12-20T21:03:36.373Z,8.80
2022-12-20T21:09:29.396Z,9.20
2022-12-20T21:12:15.971Z,9.30
2022-12-20T21:15:21.893Z,9.30
2022-12-20T21:18:07.361Z,9.50
2022-12-20T21:20:53.299Z,9.40
2022-12-20T21:23:43.135Z,9.60
2022-12-20T21:26:28.443Z,9.40
2022-12-20T21:29:14.154Z,9.40
2022-12-20T21:32:00.239Z,9.20
2022-12-20T21:34:46.187Z,9.40
2022-12-20T21:37:32.126Z,9.50
2022-12-20T21:40:17.688Z,9.50
2022-12-20T21:43:03.227Z,9.60
2022-12-20T21:45:50.682Z,9.50
2022-12-20T21:48:36.192Z,9.50
2022-12-20T21:51:24.221Z,8.80
2022-12-20T21:54:10.046Z,8.90
2022-12-20T21:56:56.231Z,9.30
2022-12-20T21:59:41.872Z,9.40
2022-12-20T22:02:28.541Z,9.50
2022-12-20T22:05:15.451Z,9.70
2022-12-20T22:08:01.738Z,9.40
2022-12-20T22:10:49.949Z,9.20
2022-12-20T22:13:41.197Z,9.30
2022-12-20T22:16:30.971Z,9.30
2022-12-20T22:19:16.476Z,9.10
2022-12-20T22:22:02.232Z,9.10
2022-12-20T22:24:47.672Z,9.00
2022-12-20T22:27:33.171Z,9.20
2022-12-20T22:30:19.053Z,9.20
2022-12-20T22:33:04.683Z,8.40
2022-12-20T22:35:50.412Z,8.50
2022-12-20T22:38:36.143Z,8.30
2022-12-20T22:41:24.846Z,8.80
2022-12-20T22:44:10.385Z,8.30
2022-12-20T22:46:55.886Z,8.50
2022-12-20T22:49:41.988Z,8.50
2022-12-20T22:52:44.690Z,8.30
2022-12-20T22:55:30.247Z,8.60
2022-12-20T22:58:15.842Z,8.70
2022-12-20T23:01:04.604Z,8.60
2022-12-20T23:03:50.609Z,8.50
2022-12-20T23:06:35.986Z,8.60
2022-12-20T23:09:26.665Z,8.50
2022-12-20T23:12:30.813Z,8.60
2022-12-20T23:15:34.803Z,8.60
2022-12-20T23:18:20.240Z,8.60
2022-12-20T23:21:24.472Z,8.20
2022-12-20T23:24:11.520Z,7.80
2022-12-20T23:26:57.156Z,8.10
2022-12-20T23:29:42.902Z,8.00
2022-12-20T23:32:29.066Z,7.60
2022-12-20T23:35:17.327Z,8.10
2022-12-20T23:38:03.270Z,8.30
2022-12-20T23:40:49.311Z,8.10
2022-12-20T23:43:35.095Z,8.40
2022-12-20T23:46:21.905Z,8.50
2022-12-20T23:49:08.205Z,8.40
2022-12-20T23:51:53.625Z,8.40
2022-12-20T23:54:39.188Z,8.50
2022-12-20T23:57:24.805Z,8.70
